Time;durP1;ratioP1;P1;durP2;ratioP2;P2;SDS_P1;SDS_P2;PMS_P1;PMS_P2;Temp;Humidity;BMP_temperature;BMP_pressure;BME280_temperature;BME280_humidity;BME280_pressure;Samples;Min_cycle;Max_cycle;Signal;HPM_P1;HPM_P2
2023/06/08 00:00:50;;;;;;;13.68;12.98;;;;;;;;;;4987863;28;20030;-62
2023/06/08 00:03:18;;;;;;;11.80;11.20;;;;;;;;;;4980394;28;20026;-62
2023/06/08 00:05:47;;;;;;;12.23;11.63;;;;;;;;;;4989328;28;20030;-62
2023/06/08 00:08:12;;;;;;;11.95;11.35;;;;;;;;;;4987970;28;20402;-61
2023/06/08 00:10:41;;;;;;;12.45;11.85;;;;;;;;;;4989981;28;20014;-61
2023/06/08 00:13:06;;;;;;;12.40;11.80;;;;;;;;;;4982012;28;20015;-61
2023/06/08 00:15:33;;;;;;;12.27;11.68;;;;;;;;;;4987256;28;20022;-61
2023/06/08 00:17:58;;;;;;;11.50;10.98;;;;;;;;;;4988207;28;20030;-62
2023/06/08 00:20:24;;;;;;;12.60;12.00;;;;;;;;;;4983212;28;20022;-61
2023/06/08 00:22:50;;;;;;;12.38;11.77;;;;;;;;;;4987233;28;20133;-62
2023/06/08 00:25:15;;;;;;;12.88;12.18;;;;;;;;;;4988214;28;20030;-61
2023/06/08 00:27:40;;;;;;;12.15;11.55;;;;;;;;;;4986194;28;20038;-63
2023/06/08 00:30:06;;;;;;;13.10;12.40;;;;;;;;;;4985971;28;20381;-61
2023/06/08 00:32:32;;;;;;;12.43;11.82;;;;;;;;;;4980641;28;20697;-61
2023/06/08 00:34:57;;;;;;;11.80;11.20;;;;;;;;;;4991550;28;20109;-62
2023/06/08 00:37:22;;;;;;;12.93;12.23;;;;;;;;;;4985977;28;20045;-62
2023/06/08 00:39:47;;;;;;;12.10;11.50;;;;;;;;;;4995781;28;20648;-62
2023/06/08 00:42:13;;;;;;;11.63;11.13;;;;;;;;;;4992828;28;20025;-62
2023/06/08 00:44:38;;;;;;;11.85;11.27;;;;;;;;;;4990596;28;20084;-62
2023/06/08 00:47:03;;;;;;;12.73;12.02;;;;;;;;;;4991687;28;20561;-62
2023/06/08 00:49:31;;;;;;;11.57;11.05;;;;;;;;;;4989491;28;20126;-62
2023/06/08 00:51:56;;;;;;;12.32;11.73;;;;;;;;;;4992373;28;20019;-62
2023/06/08 00:54:24;;;;;;;11.95;11.35;;;;;;;;;;4986250;28;20441;-62
2023/06/08 00:56:50;;;;;;;11.48;10.95;;;;;;;;;;4994614;28;20143;-62
2023/06/08 00:59:15;;;;;;;11.07;10.57;;;;;;;;;;4991689;28;20030;-62
2023/06/08 01:01:41;;;;;;;11.73;11.13;;;;;;;;;;4988258;28;20073;-61
2023/06/08 01:04:06;;;;;;;12.15;11.55;;;;;;;;;;4991923;28;20461;-62
2023/06/08 01:06:32;;;;;;;11.20;10.70;;;;;;;;;;4991748;28;20041;-62
2023/06/08 01:09:17;;;;;;;12.68;12.00;;;;;;;;;;4993634;28;20105;-62
2023/06/08 01:12:01;;;;;;;12.00;11.40;;;;;;;;;;4990040;28;20069;-62
2023/06/08 01:14:51;;;;;;;11.27;10.77;;;;;;;;;;4983888;28;20027;-62
2023/06/08 01:17:19;;;;;;;11.48;10.88;;;;;;;;;;4989227;28;20030;-62
2023/06/08 01:19:47;;;;;;;11.88;11.27;;;;;;;;;;4991830;28;20026;-63
2023/06/08 01:22:33;;;;;;;12.43;11.82;;;;;;;;;;4987776;28;20503;-62
2023/06/08 01:24:59;;;;;;;12.00;11.40;;;;;;;;;;4988486;28;20070;-62
2023/06/08 01:27:26;;;;;;;12.98;12.27;;;;;;;;;;4989093;28;20026;-61
2023/06/08 01:29:51;;;;;;;12.00;11.40;;;;;;;;;;4988999;28;20039;-62
2023/06/08 01:32:17;;;;;;;12.30;11.70;;;;;;;;;;4984379;28;20033;-63
2023/06/08 01:34:42;;;;;;;12.68;12.02;;;;;;;;;;4986255;28;20109;-62
2023/06/08 01:37:07;;;;;;;12.10;11.50;;;;;;;;;;4990335;28;20038;-62
2023/06/08 01:39:45;;;;;;;12.20;11.60;;;;;;;;;;4991077;28;20088;-62
2023/06/08 01:42:12;;;;;;;12.82;12.13;;;;;;;;;;4994039;28;20022;-62
2023/06/08 01:44:40;;;;;;;13.13;12.43;;;;;;;;;;4988633;28;20035;-61
2023/06/08 01:47:06;;;;;;;12.15;11.55;;;;;;;;;;4990777;28;20050;-61
2023/06/08 01:49:32;;;;;;;12.40;11.80;;;;;;;;;;4992667;28;20438;-62
2023/06/08 01:51:58;;;;;;;11.57;11.07;;;;;;;;;;4988302;28;22386;-62
2023/06/08 01:54:23;;;;;;;11.45;10.95;;;;;;;;;;4990628;28;20081;-62
2023/06/08 01:56:49;;;;;;;12.98;12.27;;;;;;;;;;4990867;28;20065;-61
2023/06/08 01:59:14;;;;;;;12.15;11.55;;;;;;;;;;4993738;28;20034;-62
2023/06/08 02:01:40;;;;;;;12.00;11.40;;;;;;;;;;4991277;28;20043;-61
2023/06/08 02:04:05;;;;;;;12.00;11.40;;;;;;;;;;4986731;28;20494;-61
2023/06/08 02:06:31;;;;;;;11.88;11.27;;;;;;;;;;4985579;28;20037;-62
2023/06/08 02:08:56;;;;;;;13.00;12.30;;;;;;;;;;4981862;28;20019;-62
2023/06/08 02:11:22;;;;;;;13.00;12.30;;;;;;;;;;4987152;28;20019;-61
2023/06/08 02:13:48;;;;;;;12.00;11.40;;;;;;;;;;4990715;28;20018;-61
2023/06/08 02:16:13;;;;;;;11.75;11.15;;;;;;;;;;4988780;28;20030;-61
2023/06/08 02:18:40;;;;;;;12.68;11.98;;;;;;;;;;4985879;28;20485;-61
2023/06/08 02:21:06;;;;;;;12.80;12.10;;;;;;;;;;4988002;28;20690;-63
2023/06/08 02:23:31;;;;;;;12.27;11.68;;;;;;;;;;4984801;28;20085;-62
2023/06/08 02:25:56;;;;;;;12.60;12.00;;;;;;;;;;4987482;28;20031;-61
2023/06/08 02:28:22;;;;;;;11.90;11.30;;;;;;;;;;4989940;28;20117;-61
2023/06/08 02:30:47;;;;;;;12.23;11.63;;;;;;;;;;4991909;28;20026;-61
2023/06/08 02:33:15;;;;;;;12.02;11.43;;;;;;;;;;4986883;28;20560;-62
2023/06/08 02:35:41;;;;;;;12.40;11.80;;;;;;;;;;4992344;28;20029;-61
2023/06/08 02:38:06;;;;;;;12.27;11.68;;;;;;;;;;4987484;28;20027;-61
2023/06/08 02:40:32;;;;;;;13.00;12.30;;;;;;;;;;4983043;28;20026;-61
2023/06/08 02:42:58;;;;;;;12.10;11.50;;;;;;;;;;4988049;28;20448;-62
2023/06/08 02:45:23;;;;;;;11.73;11.15;;;;;;;;;;4990667;28;20014;-62
2023/06/08 02:47:49;;;;;;;12.25;11.65;;;;;;;;;;4984152;28;20034;-61
2023/06/08 02:50:14;;;;;;;12.35;11.75;;;;;;;;;;4987618;28;20041;-62
2023/06/08 02:52:39;;;;;;;11.40;10.90;;;;;;;;;;4982833;28;20558;-62
2023/06/08 02:55:05;;;;;;;11.50;11.00;;;;;;;;;;4984613;28;20038;-62
2023/06/08 02:57:32;;;;;;;12.38;11.77;;;;;;;;;;4993326;28;20033;-62
2023/06/08 02:59:57;;;;;;;11.73;11.13;;;;;;;;;;4985742;28;20109;-62
2023/06/08 03:02:23;;;;;;;11.68;11.10;;;;;;;;;;4993078;28;20076;-62
2023/06/08 03:04:48;;;;;;;11.52;11.02;;;;;;;;;;4986251;28;20048;-62
2023/06/08 03:07:17;;;;;;;12.05;11.45;;;;;;;;;;4988658;28;20032;-62
2023/06/08 03:09:42;;;;;;;11.35;10.85;;;;;;;;;;4988286;28;20058;-62
2023/06/08 03:12:09;;;;;;;12.73;12.07;;;;;;;;;;4989430;28;20062;-63
2023/06/08 03:14:36;;;;;;;11.90;11.30;;;;;;;;;;5004539;28;20036;-62
2023/06/08 03:17:02;;;;;;;12.70;12.10;;;;;;;;;;4988635;28;20390;-62
2023/06/08 03:19:30;;;;;;;12.00;11.40;;;;;;;;;;4988874;28;20018;-60
2023/06/08 03:21:56;;;;;;;12.10;11.50;;;;;;;;;;4988343;28;20105;-62
2023/06/08 03:24:22;;;;;;;11.63;11.13;;;;;;;;;;4985608;28;20541;-62
2023/06/08 03:26:47;;;;;;;12.30;11.70;;;;;;;;;;4982582;28;20035;-62
2023/06/08 03:29:12;;;;;;;12.63;12.02;;;;;;;;;;4990868;28;20482;-62
2023/06/08 03:31:38;;;;;;;12.30;11.70;;;;;;;;;;4987850;28;20106;-62
2023/06/08 03:34:04;;;;;;;11.90;11.40;;;;;;;;;;4984346;28;20418;-62
2023/06/08 03:36:33;;;;;;;12.95;12.35;;;;;;;;;;4985877;28;20038;-62
2023/06/08 03:39:00;;;;;;;12.85;12.25;;;;;;;;;;4985777;28;20442;-61
2023/06/08 03:41:26;;;;;;;12.20;11.60;;;;;;;;;;4987417;28;20042;-62
2023/06/08 03:43:52;;;;;;;11.88;11.38;;;;;;;;;;4984847;28;20125;-62
2023/06/08 03:46:17;;;;;;;11.60;11.10;;;;;;;;;;4984890;28;20105;-61
2023/06/08 03:48:42;;;;;;;12.48;11.88;;;;;;;;;;4986220;28;20022;-62
2023/06/08 03:51:07;;;;;;;13.23;12.63;;;;;;;;;;4987116;28;20102;-63
2023/06/08 03:53:33;;;;;;;11.38;10.88;;;;;;;;;;4985120;28;20015;-63
2023/06/08 03:55:58;;;;;;;11.93;11.43;;;;;;;;;;4984937;28;20030;-62
2023/06/08 03:58:24;;;;;;;11.80;11.30;;;;;;;;;;4989786;28;20034;-63
2023/06/08 04:00:49;;;;;;;11.80;11.30;;;;;;;;;;4985521;28;20272;-63
2023/06/08 04:03:14;;;;;;;11.93;11.43;;;;;;;;;;4990412;28;20057;-63
2023/06/08 04:05:40;;;;;;;11.88;11.38;;;;;;;;;;4986592;28;20026;-62
2023/06/08 04:08:05;;;;;;;11.68;11.18;;;;;;;;;;4988002;28;20023;-62
2023/06/08 04:10:31;;;;;;;11.75;11.25;;;;;;;;;;4996431;28;20054;-62
2023/06/08 04:12:56;;;;;;;12.10;11.60;;;;;;;;;;4985747;28;20023;-62
2023/06/08 04:15:21;;;;;;;12.38;11.80;;;;;;;;;;4984960;28;20022;-62
2023/06/08 04:17:49;;;;;;;12.13;11.63;;;;;;;;;;4990031;28;20144;-62
2023/06/08 04:20:15;;;;;;;11.90;11.40;;;;;;;;;;4990762;28;20029;-62
2023/06/08 04:22:40;;;;;;;12.20;11.70;;;;;;;;;;4992993;28;20036;-62
2023/06/08 04:25:06;;;;;;;12.10;11.60;;;;;;;;;;4991064;28;20034;-63
2023/06/08 04:27:31;;;;;;;12.55;11.95;;;;;;;;;;4992431;28;20330;-61
2023/06/08 04:29:57;;;;;;;12.00;11.50;;;;;;;;;;4994238;28;20029;-62
2023/06/08 04:32:22;;;;;;;12.68;12.07;;;;;;;;;;4985258;28;20057;-63
2023/06/08 04:34:47;;;;;;;11.73;11.23;;;;;;;;;;4987528;28;20045;-62
2023/06/08 04:37:13;;;;;;;12.10;11.60;;;;;;;;;;4990709;28;20508;-62
2023/06/08 04:39:38;;;;;;;12.60;12.00;;;;;;;;;;4981978;28;21204;-61
2023/06/08 04:42:05;;;;;;;12.15;11.65;;;;;;;;;;4986541;28;20452;-63
2023/06/08 04:44:32;;;;;;;12.23;11.73;;;;;;;;;;4982717;28;20121;-63
2023/06/08 04:46:57;;;;;;;12.20;11.70;;;;;;;;;;4988968;28;20038;-62
2023/06/08 04:49:31;;;;;;;12.27;11.73;;;;;;;;;;4983687;28;20515;-63
2023/06/08 04:51:59;;;;;;;12.48;11.88;;;;;;;;;;4982515;28;20088;-62
2023/06/08 04:54:26;;;;;;;12.63;12.02;;;;;;;;;;4984510;28;20049;-62
2023/06/08 04:56:53;;;;;;;12.00;11.50;;;;;;;;;;4985329;28;20031;-62
2023/06/08 04:59:19;;;;;;;11.95;11.45;;;;;;;;;;4980722;28;20069;-62
2023/06/08 05:01:44;;;;;;;12.10;11.60;;;;;;;;;;4987509;28;20030;-62
2023/06/08 05:04:09;;;;;;;12.47;11.90;;;;;;;;;;4986812;28;20025;-62
2023/06/08 05:06:34;;;;;;;12.50;11.90;;;;;;;;;;4980757;28;20073;-63
2023/06/08 05:09:00;;;;;;;12.43;11.85;;;;;;;;;;4982323;28;20320;-62
2023/06/08 05:11:26;;;;;;;11.93;11.43;;;;;;;;;;4984130;28;20018;-63
2023/06/08 05:13:51;;;;;;;12.13;11.63;;;;;;;;;;4983638;28;20022;-62
2023/06/08 05:16:16;;;;;;;12.00;11.50;;;;;;;;;;4985654;28;20393;-62
2023/06/08 05:18:42;;;;;;;12.00;11.50;;;;;;;;;;4980925;28;20100;-62
2023/06/08 05:21:07;;;;;;;12.30;11.80;;;;;;;;;;4982379;28;20074;-61
2023/06/08 05:23:32;;;;;;;12.23;11.73;;;;;;;;;;4980645;28;20284;-61
2023/06/08 05:25:58;;;;;;;11.77;11.27;;;;;;;;;;4985026;28;20319;-62
2023/06/08 05:28:23;;;;;;;11.77;11.27;;;;;;;;;;4987162;28;20022;-62
2023/06/08 05:30:48;;;;;;;12.00;11.50;;;;;;;;;;4992069;28;20053;-63
2023/06/08 05:33:13;;;;;;;11.60;11.10;;;;;;;;;;4989712;28;20275;-63
2023/06/08 05:35:39;;;;;;;12.60;12.00;;;;;;;;;;4988687;28;20581;-63
2023/06/08 05:38:04;;;;;;;11.50;11.00;;;;;;;;;;4984696;28;20031;-61
2023/06/08 05:40:29;;;;;;;11.80;11.30;;;;;;;;;;4989436;28;20503;-62
2023/06/08 05:42:55;;;;;;;11.63;11.13;;;;;;;;;;4982912;28;20375;-62
2023/06/08 05:45:20;;;;;;;12.13;11.63;;;;;;;;;;4980845;28;20363;-63
2023/06/08 05:47:45;;;;;;;11.77;11.27;;;;;;;;;;4980861;28;20085;-63
2023/06/08 05:50:11;;;;;;;11.60;11.10;;;;;;;;;;4986829;28;20330;-62
2023/06/08 05:52:36;;;;;;;12.10;11.60;;;;;;;;;;4981863;28;20015;-63
2023/06/08 05:55:01;;;;;;;11.77;11.27;;;;;;;;;;4985890;28;20102;-59
2023/06/08 05:57:27;;;;;;;11.98;11.48;;;;;;;;;;4981117;28;20027;-61
2023/06/08 05:59:52;;;;;;;11.50;11.00;;;;;;;;;;4981853;28;20050;-61
2023/06/08 06:02:18;;;;;;;11.70;11.20;;;;;;;;;;4990558;28;20089;-60
2023/06/08 06:04:43;;;;;;;11.93;11.43;;;;;;;;;;4993029;28;20053;-62
2023/06/08 06:07:08;;;;;;;12.10;11.60;;;;;;;;;;4985176;28;20801;-61
2023/06/08 06:09:34;;;;;;;11.90;11.40;;;;;;;;;;4988988;28;20295;-61
2023/06/08 06:11:59;;;;;;;11.80;11.30;;;;;;;;;;4992175;28;20243;-61
2023/06/08 06:14:27;;;;;;;12.00;11.50;;;;;;;;;;5003408;28;20401;-61
2023/06/08 06:16:52;;;;;;;11.93;11.43;;;;;;;;;;4984615;28;20030;-61
2023/06/08 06:19:17;;;;;;;11.95;11.45;;;;;;;;;;4991422;28;20030;-61
2023/06/08 06:21:43;;;;;;;12.00;11.50;;;;;;;;;;4991211;28;20475;-61
2023/06/08 06:24:08;;;;;;;11.70;11.20;;;;;;;;;;4991808;28;20056;-62
2023/06/08 06:26:33;;;;;;;11.93;11.43;;;;;;;;;;4992806;28;20077;-60
2023/06/08 06:28:59;;;;;;;12.10;11.60;;;;;;;;;;4992562;28;20343;-61
2023/06/08 06:31:24;;;;;;;11.80;11.30;;;;;;;;;;4989517;28;20022;-61
2023/06/08 06:33:50;;;;;;;11.70;11.20;;;;;;;;;;4990190;28;20026;-61
2023/06/08 06:36:15;;;;;;;11.75;11.25;;;;;;;;;;4992685;28;20023;-61
2023/06/08 06:38:41;;;;;;;12.00;11.50;;;;;;;;;;4993060;28;20030;-61
2023/06/08 06:41:06;;;;;;;12.15;11.65;;;;;;;;;;4993061;28;20022;-61
2023/06/08 06:43:32;;;;;;;12.05;11.55;;;;;;;;;;4988969;28;20424;-61
2023/06/08 06:45:57;;;;;;;11.80;11.30;;;;;;;;;;4991305;28;20033;-61
2023/06/08 06:48:23;;;;;;;11.97;11.47;;;;;;;;;;4992064;28;20394;-61
2023/06/08 06:50:49;;;;;;;12.13;11.60;;;;;;;;;;4988376;28;20631;-61
2023/06/08 06:53:14;;;;;;;12.07;11.57;;;;;;;;;;4986116;28;20045;-61
2023/06/08 06:55:40;;;;;;;11.93;11.43;;;;;;;;;;4992170;28;20018;-61
2023/06/08 06:58:06;;;;;;;11.85;11.35;;;;;;;;;;5002364;28;20030;-61
2023/06/08 07:00:37;;;;;;;12.00;11.50;;;;;;;;;;4992086;28;20027;-62
2023/06/08 07:03:03;;;;;;;11.82;11.32;;;;;;;;;;4990412;28;20145;-61
2023/06/08 07:05:29;;;;;;;11.80;11.30;;;;;;;;;;4988167;28;20053;-61
2023/06/08 07:07:55;;;;;;;11.75;11.25;;;;;;;;;;4992407;28;20026;-61
2023/06/08 07:10:21;;;;;;;11.98;11.48;;;;;;;;;;4986831;28;20504;-61
2023/06/08 07:12:47;;;;;;;12.50;11.90;;;;;;;;;;4989185;28;20022;-60
2023/06/08 07:15:13;;;;;;;12.00;11.50;;;;;;;;;;4984356;28;20026;-61
2023/06/08 07:17:38;;;;;;;12.52;11.93;;;;;;;;;;4991960;28;20305;-62
2023/06/08 07:20:04;;;;;;;12.13;11.63;;;;;;;;;;4984077;28;20559;-62
2023/06/08 07:22:30;;;;;;;12.38;11.77;;;;;;;;;;4989717;28;20101;-62
2023/06/08 07:24:55;;;;;;;12.38;11.80;;;;;;;;;;4984452;28;20030;-61
2023/06/08 07:27:20;;;;;;;12.40;11.80;;;;;;;;;;4987511;28;20034;-62
2023/06/08 07:29:47;;;;;;;12.57;11.98;;;;;;;;;;4983394;28;20023;-62
2023/06/08 07:32:12;;;;;;;12.60;12.00;;;;;;;;;;4985445;28;20053;-62
2023/06/08 07:34:38;;;;;;;12.67;12.07;;;;;;;;;;4991965;28;20057;-62
2023/06/08 07:37:03;;;;;;;12.50;11.90;;;;;;;;;;4988616;28;20365;-62
2023/06/08 07:39:28;;;;;;;12.70;12.10;;;;;;;;;;4989386;28;20613;-61
2023/06/08 07:41:54;;;;;;;12.30;11.70;;;;;;;;;;4989204;28;20037;-61
2023/06/08 07:44:19;;;;;;;12.70;12.10;;;;;;;;;;4990989;28;20037;-61
2023/06/08 07:46:44;;;;;;;12.73;12.13;;;;;;;;;;4991465;28;20054;-60
2023/06/08 07:49:10;;;;;;;12.55;11.95;;;;;;;;;;4991459;28;20263;-61
2023/06/08 07:51:35;;;;;;;12.93;12.33;;;;;;;;;;4987458;28;20045;-60
2023/06/08 07:54:00;;;;;;;12.47;11.87;;;;;;;;;;4991915;28;20619;-60
2023/06/08 07:56:26;;;;;;;12.90;12.30;;;;;;;;;;4983310;28;20280;-61
2023/06/08 07:58:51;;;;;;;12.93;12.32;;;;;;;;;;4997145;28;20502;-60
2023/06/08 08:01:16;;;;;;;13.13;12.52;;;;;;;;;;4988258;28;20019;-61
2023/06/08 08:03:42;;;;;;;12.93;12.32;;;;;;;;;;4986861;28;20057;-61
2023/06/08 08:06:07;;;;;;;12.45;11.85;;;;;;;;;;4988090;28;20022;-61
2023/06/08 08:08:32;;;;;;;12.60;12.00;;;;;;;;;;4991546;28;20026;-60
2023/06/08 08:10:58;;;;;;;13.48;12.77;;;;;;;;;;4988071;28;20022;-62
2023/06/08 08:13:23;;;;;;;13.00;12.40;;;;;;;;;;4985910;28;20094;-61
2023/06/08 08:15:48;;;;;;;12.77;12.18;;;;;;;;;;4988345;28;20030;-61
2023/06/08 08:18:14;;;;;;;12.65;12.05;;;;;;;;;;4989474;28;20014;-61
2023/06/08 08:20:40;;;;;;;12.68;12.07;;;;;;;;;;4991382;28;20069;-61
2023/06/08 08:23:05;;;;;;;13.50;12.80;;;;;;;;;;4990920;28;20391;-61
2023/06/08 08:25:31;;;;;;;12.95;12.35;;;;;;;;;;4990618;28;20022;-61
2023/06/08 08:27:56;;;;;;;13.20;12.60;;;;;;;;;;4987003;28;20065;-61
2023/06/08 08:30:21;;;;;;;13.63;12.93;;;;;;;;;;4991021;28;20094;-61
2023/06/08 08:32:47;;;;;;;12.60;12.00;;;;;;;;;;4991387;28;20101;-61
2023/06/08 08:35:14;;;;;;;12.70;12.10;;;;;;;;;;4990176;28;20077;-61
2023/06/08 08:37:40;;;;;;;12.80;12.20;;;;;;;;;;4985344;28;20022;-61
2023/06/08 08:40:06;;;;;;;12.77;12.18;;;;;;;;;;4990866;28;20030;-61
2023/06/08 08:42:32;;;;;;;12.93;12.32;;;;;;;;;;4987792;28;20033;-61
2023/06/08 08:45:00;;;;;;;12.35;11.75;;;;;;;;;;4988816;28;20037;-60
2023/06/08 08:47:28;;;;;;;12.55;11.95;;;;;;;;;;4998936;28;20029;-61
2023/06/08 08:50:06;;;;;;;12.90;12.30;;;;;;;;;;4993398;28;20387;-60
2023/06/08 08:52:33;;;;;;;13.73;13.02;;;;;;;;;;4991026;28;20046;-62
2023/06/08 08:55:00;;;;;;;12.25;11.65;;;;;;;;;;4983150;28;20548;-61
2023/06/08 08:57:29;;;;;;;12.90;12.30;;;;;;;;;;4992149;28;20034;-61
2023/06/08 08:59:55;;;;;;;12.35;11.75;;;;;;;;;;4993922;28;20397;-60
2023/06/08 09:02:20;;;;;;;12.82;12.23;;;;;;;;;;4994418;28;20038;-61
2023/06/08 09:04:46;;;;;;;13.05;12.45;;;;;;;;;;4994131;28;20030;-60
2023/06/08 09:07:11;;;;;;;13.18;12.52;;;;;;;;;;4992280;28;20657;-60
2023/06/08 09:09:36;;;;;;;12.85;12.25;;;;;;;;;;4992308;28;20025;-60
2023/06/08 09:12:03;;;;;;;13.13;12.50;;;;;;;;;;4991874;28;20485;-60
2023/06/08 09:14:28;;;;;;;12.90;12.30;;;;;;;;;;4985136;28;20338;-61
2023/06/08 09:16:54;;;;;;;12.73;12.13;;;;;;;;;;4987785;28;20026;-61
2023/06/08 09:19:20;;;;;;;13.13;12.50;;;;;;;;;;4992146;28;20041;-61
2023/06/08 09:21:45;;;;;;;12.63;12.02;;;;;;;;;;4992936;28;20025;-61
2023/06/08 09:24:12;;;;;;;12.73;12.13;;;;;;;;;;4994030;28;20046;-61
2023/06/08 09:26:47;;;;;;;13.68;12.98;;;;;;;;;;4987770;28;20014;-61
2023/06/08 09:29:31;;;;;;;12.77;12.18;;;;;;;;;;4993793;28;20038;-60
2023/06/08 09:31:57;;;;;;;12.65;12.05;;;;;;;;;;4992180;28;20022;-61
2023/06/08 09:34:22;;;;;;;13.13;12.53;;;;;;;;;;4989564;28;20566;-61
2023/06/08 09:36:49;;;;;;;12.27;11.67;;;;;;;;;;4983293;28;20252;-60
2023/06/08 09:39:15;;;;;;;13.40;12.70;;;;;;;;;;4990324;28;20800;-61
2023/06/08 09:41:54;;;;;;;13.07;12.45;;;;;;;;;;4988348;28;20027;-60
2023/06/08 09:44:19;;;;;;;12.70;12.10;;;;;;;;;;4985620;28;20536;-61
2023/06/08 09:46:48;;;;;;;12.65;12.05;;;;;;;;;;4993697;28;20114;-60
2023/06/08 09:49:14;;;;;;;12.88;12.27;;;;;;;;;;4988933;28;20022;-60
2023/06/08 09:51:44;;;;;;;12.65;12.05;;;;;;;;;;4993506;28;20022;-61
2023/06/08 09:54:09;;;;;;;12.60;12.00;;;;;;;;;;4982463;28;20054;-62
2023/06/08 09:56:37;;;;;;;12.30;11.70;;;;;;;;;;4994178;28;20090;-62
2023/06/08 09:59:13;;;;;;;12.07;11.55;;;;;;;;;;4991872;28;20018;-61
2023/06/08 10:01:42;;;;;;;12.85;12.25;;;;;;;;;;4992752;28;20041;-61
2023/06/08 10:04:10;;;;;;;13.07;12.48;;;;;;;;;;4990922;28;20033;-62
2023/06/08 10:06:36;;;;;;;12.73;12.13;;;;;;;;;;4989802;28;20060;-62
2023/06/08 10:09:05;;;;;;;12.45;11.85;;;;;;;;;;4989043;28;20497;-61
2023/06/08 10:11:31;;;;;;;12.52;11.93;;;;;;;;;;4984556;28;20023;-61
2023/06/08 10:13:58;;;;;;;13.13;12.52;;;;;;;;;;4986425;28;20026;-61
2023/06/08 10:16:24;;;;;;;13.35;12.65;;;;;;;;;;4984449;28;20382;-62
2023/06/08 10:18:50;;;;;;;12.45;11.85;;;;;;;;;;4992933;28;20031;-61
2023/06/08 10:21:15;;;;;;;12.45;11.85;;;;;;;;;;4993052;28;20055;-61
2023/06/08 10:23:41;;;;;;;12.82;12.23;;;;;;;;;;4987283;28;20049;-61
2023/06/08 10:26:07;;;;;;;13.20;12.50;;;;;;;;;;4989018;28;20031;-61
2023/06/08 10:28:32;;;;;;;12.75;12.15;;;;;;;;;;4986070;28;20501;-62
2023/06/08 10:30:57;;;;;;;12.30;11.70;;;;;;;;;;4986798;28;20057;-61
2023/06/08 10:33:24;;;;;;;13.30;12.60;;;;;;;;;;4983287;28;20275;-62
2023/06/08 10:36:09;;;;;;;14.35;13.55;;;;;;;;;;4985691;28;20093;-63
2023/06/08 10:38:39;;;;;;;13.40;12.70;;;;;;;;;;4990796;28;20035;-62
2023/06/08 10:41:04;;;;;;;12.77;12.18;;;;;;;;;;4987719;28;20088;-62
2023/06/08 10:43:29;;;;;;;12.85;12.25;;;;;;;;;;4987874;28;20026;-62
2023/06/08 10:45:55;;;;;;;12.75;12.15;;;;;;;;;;4985598;28;20030;-61
2023/06/08 10:48:21;;;;;;;12.95;12.35;;;;;;;;;;4989328;28;20385;-61
2023/06/08 10:50:48;;;;;;;12.75;12.15;;;;;;;;;;4983531;28;20077;-61
2023/06/08 10:53:17;;;;;;;12.00;11.40;;;;;;;;;;4986271;28;20390;-62
2023/06/08 10:55:46;;;;;;;12.52;11.93;;;;;;;;;;4983103;28;20030;-61
2023/06/08 10:58:15;;;;;;;12.57;11.98;;;;;;;;;;4986258;28;20031;-62
2023/06/08 11:00:45;;;;;;;13.98;13.27;;;;;;;;;;4984235;28;20022;-62
2023/06/08 11:03:11;;;;;;;12.57;11.98;;;;;;;;;;4986462;28;20496;-62
2023/06/08 11:05:38;;;;;;;12.73;12.13;;;;;;;;;;4987795;28;20072;-62
2023/06/08 11:08:04;;;;;;;12.25;11.65;;;;;;;;;;4987485;28;20034;-62
2023/06/08 11:10:32;;;;;;;13.15;12.48;;;;;;;;;;4986241;28;20382;-61
2023/06/08 11:13:04;;;;;;;12.45;11.85;;;;;;;;;;4984507;28;20026;-61
2023/06/08 11:15:31;;;;;;;12.85;12.25;;;;;;;;;;4987006;28;20026;-63
2023/06/08 11:17:56;;;;;;;13.00;12.38;;;;;;;;;;4992662;28;20030;-63
2023/06/08 11:20:25;;;;;;;14.27;13.50;;;;;;;;;;4972257;28;20037;-62
2023/06/08 11:22:51;;;;;;;13.75;13.05;;;;;;;;;;4981904;28;20070;-64
2023/06/08 11:25:22;;;;;;;14.38;13.57;;;;;;;;;;4979096;28;20139;-62
2023/06/08 11:27:52;;;;;;;13.35;12.65;;;;;;;;;;4976131;28;20038;-64
2023/06/08 11:30:18;;;;;;;14.20;13.50;;;;;;;;;;4976924;28;20403;-67
2023/06/08 11:32:45;;;;;;;13.10;12.45;;;;;;;;;;4975099;28;20110;-64
2023/06/08 11:35:10;;;;;;;14.02;13.32;;;;;;;;;;4987286;28;20141;-67
2023/06/08 11:37:36;;;;;;;15.00;14.20;;;;;;;;;;4981087;28;20509;-65
2023/06/08 11:40:08;;;;;;;13.35;12.65;;;;;;;;;;4983420;28;20038;-65
2023/06/08 11:42:35;;;;;;;14.15;13.45;;;;;;;;;;4977956;28;20058;-65
2023/06/08 11:45:03;;;;;;;13.90;13.20;;;;;;;;;;4980541;28;20481;-66
2023/06/08 11:47:29;;;;;;;14.30;13.50;;;;;;;;;;4982639;28;20034;-69
2023/06/08 11:49:57;;;;;;;13.57;12.88;;;;;;;;;;4978754;28;20073;-69
2023/06/08 11:52:22;;;;;;;13.48;12.77;;;;;;;;;;4986116;28;20029;-67
2023/06/08 11:54:54;;;;;;;13.23;12.52;;;;;;;;;;4983442;28;20027;-66
2023/06/08 11:57:21;;;;;;;14.05;13.30;;;;;;;;;;4987821;28;20031;-67
2023/06/08 11:59:46;;;;;;;13.77;13.07;;;;;;;;;;4990091;28;20049;-68
2023/06/08 12:02:12;;;;;;;13.27;12.57;;;;;;;;;;4988417;28;20026;-67
2023/06/08 12:04:37;;;;;;;14.30;13.50;;;;;;;;;;4984487;28;20022;-66
2023/06/08 12:07:10;;;;;;;13.43;12.73;;;;;;;;;;4982249;28;20127;-69
2023/06/08 12:09:35;;;;;;;14.93;14.13;;;;;;;;;;4982619;28;20025;-65
2023/06/08 12:12:11;;;;;;;14.75;13.95;;;;;;;;;;4984350;28;20022;-65
2023/06/08 12:14:36;;;;;;;13.82;13.13;;;;;;;;;;4979383;28;20029;-65
2023/06/08 12:17:04;;;;;;;13.68;12.98;;;;;;;;;;4978543;28;20026;-66
2023/06/08 12:19:31;;;;;;;13.73;13.02;;;;;;;;;;4985312;28;20057;-65
2023/06/08 12:21:57;;;;;;;14.85;14.05;;;;;;;;;;4980995;28;20031;-65
2023/06/08 12:24:22;;;;;;;16.55;15.60;;;;;;;;;;4981436;28;20049;-67
2023/06/08 12:26:47;;;;;;;15.07;14.27;;;;;;;;;;4977525;28;20039;-65
2023/06/08 12:29:14;;;;;;;13.95;13.25;;;;;;;;;;4985955;28;20034;-66
2023/06/08 12:31:39;;;;;;;14.98;14.18;;;;;;;;;;4985002;28;20110;-68
2023/06/08 12:34:05;;;;;;;14.27;13.52;;;;;;;;;;4985091;28;20109;-67
2023/06/08 12:36:30;;;;;;;14.68;13.88;;;;;;;;;;4984094;28;20669;-70
2023/06/08 12:38:57;;;;;;;13.23;12.52;;;;;;;;;;4984345;28;20106;-69
2023/06/08 12:41:23;;;;;;;13.80;13.10;;;;;;;;;;4983205;28;20116;-66
2023/06/08 12:43:48;;;;;;;13.57;12.88;;;;;;;;;;4984936;28;20034;-65
2023/06/08 12:46:18;;;;;;;12.48;11.88;;;;;;;;;;4985387;28;20486;-65
2023/06/08 12:48:47;;;;;;;13.65;12.95;;;;;;;;;;4987630;28;20024;-64
2023/06/08 12:51:12;;;;;;;13.77;13.07;;;;;;;;;;4990398;28;20046;-65
2023/06/08 12:53:38;;;;;;;13.93;13.23;;;;;;;;;;4988745;28;20057;-68
2023/06/08 12:56:04;;;;;;;13.75;13.05;;;;;;;;;;4981419;28;20023;-68
2023/06/08 12:58:29;;;;;;;13.27;12.57;;;;;;;;;;4982864;28;20971;-66
2023/06/08 13:00:55;;;;;;;14.95;14.15;;;;;;;;;;4985358;28;20102;-63
2023/06/08 13:03:22;;;;;;;12.52;11.93;;;;;;;;;;4987929;28;20101;-65
2023/06/08 13:05:47;;;;;;;13.80;13.10;;;;;;;;;;4977956;28;20038;-67
2023/06/08 13:08:12;;;;;;;13.65;12.95;;;;;;;;;;4986473;28;20026;-66
2023/06/08 13:10:38;;;;;;;13.25;12.55;;;;;;;;;;4987431;28;20018;-66
2023/06/08 13:13:06;;;;;;;13.73;13.02;;;;;;;;;;4985182;28;20049;-67
2023/06/08 13:15:31;;;;;;;13.70;13.00;;;;;;;;;;4979655;28;20470;-64
2023/06/08 13:17:57;;;;;;;13.30;12.60;;;;;;;;;;4990237;28;20033;-67
2023/06/08 13:20:23;;;;;;;13.85;13.15;;;;;;;;;;4987710;28;20033;-67
2023/06/08 13:22:48;;;;;;;12.63;12.02;;;;;;;;;;4996584;28;20042;-67
2023/06/08 13:25:14;;;;;;;12.80;12.20;;;;;;;;;;4977380;28;20106;-66
2023/06/08 13:27:40;;;;;;;14.18;13.40;;;;;;;;;;4989053;28;20038;-65
2023/06/08 13:30:05;;;;;;;12.55;11.95;;;;;;;;;;4979624;28;20030;-66
2023/06/08 13:32:31;;;;;;;12.65;12.05;;;;;;;;;;4983867;28;20650;-66
2023/06/08 13:34:56;;;;;;;13.13;12.43;;;;;;;;;;4985861;28;20041;-68
2023/06/08 13:37:21;;;;;;;13.82;13.13;;;;;;;;;;4990961;28;20026;-68
2023/06/08 13:39:47;;;;;;;13.75;13.05;;;;;;;;;;4994188;28;20976;-65
2023/06/08 13:42:12;;;;;;;13.47;12.77;;;;;;;;;;4987116;28;20410;-66
2023/06/08 13:44:40;;;;;;;14.60;13.80;;;;;;;;;;4987270;28;20310;-66
2023/06/08 13:47:06;;;;;;;13.45;12.75;;;;;;;;;;4983247;28;20283;-66
2023/06/08 13:49:31;;;;;;;13.48;12.77;;;;;;;;;;4985168;28;20390;-68
2023/06/08 13:51:56;;;;;;;13.63;12.93;;;;;;;;;;4982973;28;20113;-66
2023/06/08 13:54:22;;;;;;;14.38;13.57;;;;;;;;;;4982978;28;20022;-65
2023/06/08 13:56:47;;;;;;;13.90;13.20;;;;;;;;;;4987632;28;20085;-65
2023/06/08 13:59:13;;;;;;;13.63;12.93;;;;;;;;;;4979220;28;20034;-67
2023/06/08 14:01:38;;;;;;;14.75;13.95;;;;;;;;;;4980133;28;20059;-67
2023/06/08 14:04:03;;;;;;;14.35;13.55;;;;;;;;;;4986189;28;20049;-64
2023/06/08 14:06:29;;;;;;;13.30;12.60;;;;;;;;;;4984298;28;20046;-63
2023/06/08 14:08:54;;;;;;;14.93;14.13;;;;;;;;;;4985607;28;20018;-63
2023/06/08 14:11:20;;;;;;;13.00;12.40;;;;;;;;;;4985967;28;20485;-63